createdAt,value
2023-04-14T00:02:28.281Z,22.23
2023-04-14T00:07:52.331Z,27.02
2023-04-14T00:13:17.761Z,26.48
2023-04-14T00:18:42.076Z,35.45
2023-04-14T00:24:06.887Z,24.58
2023-04-14T00:29:33.774Z,18.52
2023-04-14T00:35:00.086Z,14.88
2023-04-14T00:40:24.136Z,18.02
2023-04-14T00:45:50.329Z,20.17
2023-04-14T00:51:19.438Z,18.50
2023-04-14T00:56:42.210Z,18.92
2023-04-14T01:02:09.171Z,21.88
2023-04-14T01:07:33.591Z,21.05
2023-04-14T01:13:07.536Z,22.48
2023-04-14T01:18:47.928Z,23.65
2023-04-14T01:24:27.423Z,26.33
2023-04-14T01:30:00.750Z,27.42
2023-04-14T01:35:34.507Z,37.40
2023-04-14T01:41:00.406Z,29.00
2023-04-14T01:46:24.754Z,20.60
2023-04-14T01:51:50.286Z,18.83
2023-04-14T01:57:19.383Z,24.40
2023-04-14T02:02:46.665Z,27.52
2023-04-14T02:08:15.033Z,27.17
2023-04-14T02:13:40.965Z,23.13
2023-04-14T02:19:05.546Z,26.33
2023-04-14T02:24:31.631Z,45.35
2023-04-14T02:30:00.156Z,24.23
2023-04-14T02:35:27.361Z,22.65
2023-04-14T02:40:53.494Z,27.02
2023-04-14T02:46:21.522Z,17.20
2023-04-14T02:51:46.812Z,20.35
2023-04-14T02:57:13.771Z,26.38
2023-04-14T03:02:41.625Z,22.75
2023-04-14T03:08:07.113Z,31.00
2023-04-14T03:13:34.661Z,19.95
2023-04-14T03:19:01.152Z,15.77
2023-04-14T03:24:27.422Z,25.00
2023-04-14T03:29:55.341Z,21.52
2023-04-14T03:35:21.970Z,13.93
2023-04-14T03:40:48.516Z,13.23
2023-04-14T03:46:19.853Z,19.42
2023-04-14T03:51:45.431Z,16.25
2023-04-14T03:57:12.906Z,22.25
2023-04-14T04:02:40.203Z,17.15
2023-04-14T04:08:05.195Z,14.80
2023-04-14T04:13:30.566Z,18.38
2023-04-14T04:18:57.640Z,13.50
2023-04-14T04:24:27.531Z,12.05
2023-04-14T04:29:52.052Z,13.70
2023-04-14T04:35:18.336Z,11.82
2023-04-14T04:40:44.511Z,15.52
2023-04-14T04:46:32.537Z,15.93
2023-04-14T04:51:59.891Z,10.85
2023-04-14T04:57:25.662Z,12.85
2023-04-14T05:02:49.824Z,29.02
2023-04-14T05:08:15.566Z,13.90
2023-04-14T05:13:39.725Z,12.35
2023-04-14T05:19:04.032Z,15.00
2023-04-14T05:24:29.768Z,15.57
2023-04-14T05:29:54.132Z,15.65
2023-04-14T05:35:24.987Z,10.20
2023-04-14T05:40:50.576Z,8.07
2023-04-14T05:46:15.490Z,7.47
2023-04-14T05:51:39.482Z,8.35
2023-04-14T05:57:05.701Z,7.97
2023-04-14T06:02:29.774Z,13.20
2023-04-14T06:07:55.750Z,16.27
2023-04-14T06:13:22.989Z,15.55
2023-04-14T06:18:47.659Z,10.38
2023-04-14T06:24:11.800Z,10.82
2023-04-14T06:29:37.287Z,10.38
2023-04-14T06:35:01.629Z,9.23
2023-04-14T06:40:25.949Z,12.40
2023-04-14T06:45:51.896Z,10.48
2023-04-14T06:51:18.550Z,11.00
2023-04-14T06:56:42.591Z,13.63
2023-04-14T07:02:07.365Z,13.38
2023-04-14T07:07:30.965Z,10.70
2023-04-14T07:12:55.506Z,19.65
2023-04-14T07:18:20.269Z,12.10
2023-04-14T07:23:44.641Z,18.25
2023-04-14T07:29:08.060Z,21.55
2023-04-14T07:34:35.159Z,17.60
2023-04-14T07:39:59.501Z,14.27
2023-04-14T07:45:23.964Z,10.77
2023-04-14T07:50:51.248Z,22.52
2023-04-14T07:56:16.240Z,12.18
2023-04-14T08:01:40.280Z,7.88
2023-04-14T08:07:08.438Z,9.95
2023-04-14T08:12:34.968Z,16.42
2023-04-14T08:17:58.702Z,12.65
2023-04-14T08:23:24.329Z,9.50
2023-04-14T08:28:50.957Z,12.02
2023-04-14T08:34:16.811Z,19.50
2023-04-14T08:39:53.458Z,15.52
2023-04-14T08:45:20.044Z,8.23
2023-04-14T08:50:45.413Z,9.77
2023-04-14T08:56:12.253Z,14.20
2023-04-14T09:01:37.254Z,9.50
2023-04-14T09:07:02.798Z,11.38
2023-04-14T09:12:29.314Z,14.27
2023-04-14T09:17:55.070Z,8.77
2023-04-14T09:23:21.787Z,5.78
2023-04-14T09:28:48.984Z,5.40
2023-04-14T09:34:19.616Z,6.88
2023-04-14T09:39:48.448Z,5.65
2023-04-14T09:45:14.447Z,6.75
2023-04-14T09:50:57.107Z,8.02
2023-04-14T09:56:22.164Z,8.07
2023-04-14T10:01:48.045Z,6.28
2023-04-14T10:07:12.405Z,7.68
2023-04-14T10:12:36.714Z,9.93
2023-04-14T10:18:02.844Z,9.50
2023-04-14T10:23:28.261Z,6.82
2023-04-14T10:28:54.416Z,7.53
2023-04-14T10:34:25.162Z,6.95
2023-04-14T10:39:55.695Z,10.20
2023-04-14T10:45:19.790Z,6.70
2023-04-14T10:50:49.015Z,8.57
2023-04-14T10:56:13.878Z,8.35
2023-04-14T11:01:40.156Z,11.60
2023-04-14T11:07:11.011Z,6.47
2023-04-14T11:12:43.096Z,12.77
2023-04-14T11:18:12.389Z,7.78
2023-04-14T11:23:38.816Z,13.40
2023-04-14T11:29:09.238Z,9.02
2023-04-14T11:34:34.394Z,6.25
2023-04-14T11:40:01.438Z,4.60
2023-04-14T11:45:28.455Z,7.75
2023-04-14T11:50:52.259Z,7.65
2023-04-14T11:56:18.525Z,6.95
2023-04-14T12:01:42.792Z,33.08
2023-04-14T12:07:10.839Z,8.38
2023-04-14T12:12:41.696Z,6.15
2023-04-14T12:18:06.908Z,5.25
2023-04-14T12:23:30.893Z,9.27
2023-04-14T12:28:59.514Z,5.93
2023-04-14T12:34:26.146Z,5.43
2023-04-14T12:39:50.864Z,6.47
2023-04-14T12:45:17.309Z,6.35
2023-04-14T12:50:42.205Z,4.93
2023-04-14T12:56:08.578Z,7.30
2023-04-14T13:01:34.328Z,4.32
2023-04-14T13:06:58.845Z,5.30
2023-04-14T13:12:22.411Z,7.05
2023-04-14T13:17:46.967Z,8.77
2023-04-14T13:23:11.506Z,8.20
2023-04-14T13:28:36.556Z,3.83
2023-04-14T13:34:04.860Z,5.13
2023-04-14T13:39:30.206Z,29.52
2023-04-14T13:44:54.343Z,7.00
2023-04-14T13:50:22.482Z,3.15
2023-04-14T13:55:46.929Z,2.53
2023-04-14T14:01:11.421Z,3.65
2023-04-14T14:06:37.291Z,2.83
2023-04-14T14:12:01.547Z,2.58
2023-04-14T14:17:26.140Z,2.58
2023-04-14T14:22:52.678Z,5.18
2023-04-14T14:28:17.976Z,2.45
2023-04-14T14:33:42.225Z,3.92
2023-04-14T14:39:07.286Z,4.78
2023-04-14T14:44:31.341Z,2.28
2023-04-14T14:50:02.843Z,5.60
2023-04-14T14:55:30.157Z,2.22
2023-04-14T15:00:54.345Z,3.58
2023-04-14T15:06:19.486Z,4.65
2023-04-14T15:11:44.510Z,2.50
2023-04-14T15:17:08.229Z,2.60
2023-04-14T15:22:32.143Z,16.58
2023-04-14T15:27:57.525Z,3.67
2023-04-14T15:33:22.486Z,6.40
2023-04-14T15:38:47.089Z,3.80
2023-04-14T15:44:12.444Z,3.33
2023-04-14T15:49:37.411Z,10.82
2023-04-14T15:55:02.060Z,9.77
2023-04-14T16:00:29.073Z,5.78
2023-04-14T16:06:00.439Z,9.15
2023-04-14T16:11:26.198Z,3.60
2023-04-14T16:16:52.682Z,5.93
2023-04-14T16:22:16.757Z,4.35
2023-04-14T16:27:42.106Z,5.22
2023-04-14T16:33:07.915Z,3.03
2023-04-14T16:38:32.419Z,5.57
2023-04-14T16:43:57.715Z,3.13
2023-04-14T16:49:23.291Z,13.40
2023-04-14T16:54:47.996Z,5.53
2023-04-14T17:00:13.870Z,5.97
2023-04-14T17:05:39.395Z,7.05
2023-04-14T17:11:04.245Z,8.95
2023-04-14T17:16:29.333Z,5.10
2023-04-14T17:21:55.044Z,4.50
2023-04-14T17:27:20.238Z,15.38
2023-04-14T17:32:45.025Z,3.78
2023-04-14T17:38:10.652Z,4.05
2023-04-14T17:43:37.916Z,6.50
2023-04-14T17:49:02.587Z,6.15
2023-04-14T17:54:31.147Z,3.38
2023-04-14T17:59:55.277Z,3.90
2023-04-14T18:05:22.390Z,3.55
2023-04-14T18:10:48.074Z,3.10
2023-04-14T18:16:12.528Z,6.22
2023-04-14T18:21:36.174Z,4.05
2023-04-14T18:28:02.680Z,7.93
2023-04-14T18:32:46.805Z,6.65
2023-04-14T18:38:10.538Z,21.98
2023-04-14T18:43:35.665Z,11.93
2023-04-14T18:48:59.555Z,11.40
2023-04-14T18:54:23.340Z,8.73
2023-04-14T18:59:48.586Z,20.15
2023-04-14T19:05:12.631Z,2.70
2023-04-14T19:10:37.336Z,6.43
2023-04-14T19:16:08.405Z,4.65
2023-04-14T19:21:33.994Z,5.70
2023-04-14T19:26:58.639Z,9.07
2023-04-14T19:32:24.327Z,9.85
2023-04-14T19:37:47.824Z,15.57
2023-04-14T19:43:13.862Z,16.40
2023-04-14T19:48:40.531Z,8.57
2023-04-14T19:54:05.510Z,14.10
2023-04-14T19:59:31.485Z,5.80
2023-04-14T20:04:57.250Z,11.23
2023-04-14T20:10:22.811Z,3.53
2023-04-14T20:15:49.693Z,17.65
2023-04-14T20:21:15.793Z,23.40
2023-04-14T20:26:42.705Z,6.10
2023-04-14T20:32:06.558Z,7.18
2023-04-14T20:37:32.116Z,13.23
2023-04-14T20:42:59.229Z,11.82
2023-04-14T20:48:23.093Z,6.63
2023-04-14T20:53:51.454Z,3.28
2023-04-14T20:59:16.458Z,5.60
2023-04-14T21:04:41.687Z,7.53
2023-04-14T21:10:07.807Z,10.02
2023-04-14T21:15:52.605Z,8.90
2023-04-14T21:21:16.257Z,6.72
2023-04-14T21:26:41.885Z,7.20
2023-04-14T21:32:07.816Z,7.45
2023-04-14T21:37:31.878Z,6.22
2023-04-14T21:42:57.769Z,11.18
2023-04-14T21:48:23.993Z,7.50
2023-04-14T21:53:48.786Z,11.23
2023-04-14T21:59:15.325Z,10.93
2023-04-14T22:04:41.013Z,10.68
2023-04-14T22:10:06.424Z,4.18
2023-04-14T22:15:31.667Z,8.50
2023-04-14T22:20:55.776Z,8.07
2023-04-14T22:26:19.952Z,11.45
2023-04-14T22:31:45.915Z,5.95
2023-04-14T22:37:11.380Z,7.43
2023-04-14T22:42:35.593Z,6.90
2023-04-14T22:48:02.407Z,32.08
2023-04-14T22:53:26.716Z,10.15
2023-04-14T22:58:50.922Z,11.65
2023-04-14T23:04:17.010Z,10.55
2023-04-14T23:09:41.313Z,13.15
2023-04-14T23:15:07.709Z,6.75
2023-04-14T23:20:37.129Z,19.00
2023-04-14T23:26:01.753Z,6.60
2023-04-14T23:31:28.116Z,11.25
2023-04-14T23:36:53.037Z,5.20
2023-04-14T23:42:16.862Z,5.47
2023-04-14T23:47:41.051Z,6.95
2023-04-14T23:53:07.379Z,3.22
2023-04-14T23:58:31.490Z,7.72
